Time;durP1;ratioP1;P1;durP2;ratioP2;P2;SDS_P1;SDS_P2;PMS_P1;PMS_P2;Temp;Humidity;BMP_temperature;BMP_pressure;BME280_temperature;BME280_humidity;BME280_pressure;Samples;Min_cycle;Max_cycle;Signal;HPM_P1;HPM_P2
2023/12/15 00:02:16;;;;;;;0.65;0.65;;;;;;;-142.91;100.00;56616.03;5039122;28;20294;-78
2023/12/15 00:04:43;;;;;;;1.88;0.50;;;;;;;-142.91;100.00;56616.03;5042957;28;20787;-76
2023/12/15 00:07:10;;;;;;;0.52;0.52;;;;;;;;;;5040855;28;20286;-78
2023/12/15 00:09:36;;;;;;;3.25;0.65;;;;;;;-142.91;100.00;56616.03;5042768;28;20310;-76
2023/12/15 00:12:03;;;;;;;0.70;0.70;;;;;;;-142.91;100.00;56616.03;5038037;28;20641;-78
2023/12/15 00:14:30;;;;;;;0.70;0.70;;;;;;;-142.91;100.00;56616.03;5040813;28;20282;-78
2023/12/15 00:16:58;;;;;;;0.63;0.63;;;;;;;;;;5039669;28;20298;-78
2023/12/15 00:19:25;;;;;;;0.70;0.70;;;;;;;-142.91;100.00;56616.03;5043376;28;20295;-78
2023/12/15 00:21:51;;;;;;;0.77;0.77;;;;;;;-142.91;100.00;56616.03;5040840;28;20203;-78
2023/12/15 00:24:18;;;;;;;0.70;0.70;;;;;;;;;;5041837;28;20224;-78
2023/12/15 00:26:44;;;;;;;0.73;0.73;;;;;;;-142.91;100.00;56616.03;5038992;28;20749;-76
2023/12/15 00:29:11;;;;;;;0.70;0.70;;;;;;;-142.91;100.00;56616.03;5041229;28;20335;-82
2023/12/15 00:31:38;;;;;;;0.50;0.50;;;;;;;;;;5041871;28;20227;-80
2023/12/15 00:34:06;;;;;;;0.50;0.50;;;;;;;-142.91;100.00;56616.03;5043693;28;20195;-79
2023/12/15 00:36:34;;;;;;;0.77;0.77;;;;;;;-142.91;100.00;56616.03;5041389;28;20728;-82
2023/12/15 00:39:02;;;;;;;0.55;0.55;;;;;;;-142.91;100.00;56616.03;5040859;28;20769;-80
2023/12/15 00:41:31;;;;;;;0.55;0.55;;;;;;;-142.91;100.00;56616.03;5041693;28;20591;-78
2023/12/15 00:43:57;;;;;;;0.60;0.60;;;;;;;;;;5043380;28;20268;-79
2023/12/15 00:46:24;;;;;;;1.00;0.75;;;;;;;-142.91;100.00;56616.03;5043861;28;20280;-78
2023/12/15 00:48:51;;;;;;;0.50;0.50;;;;;;;;;;5039200;28;20219;-79
2023/12/15 00:51:19;;;;;;;0.50;0.50;;;;;;;;;;5042976;28;21234;-79
2023/12/15 00:53:46;;;;;;;0.60;0.60;;;;;;;-142.91;100.00;56616.03;5037985;28;21617;-79
2023/12/15 00:56:13;;;;;;;0.85;0.85;;;;;;;;;;5044169;28;20293;-76
2023/12/15 00:58:40;;;;;;;0.80;0.80;;;;;;;-142.91;100.00;56616.03;5039250;28;20673;-77
2023/12/15 01:01:07;;;;;;;0.52;0.52;;;;;;;;;;5040716;28;20696;-80
2023/12/15 01:03:34;;;;;;;0.60;0.60;;;;;;;-142.91;100.00;56616.03;5038153;28;20282;-78
2023/12/15 01:06:00;;;;;;;0.90;0.90;;;;;;;;;;5038436;28;20289;-77
2023/12/15 01:08:28;;;;;;;0.60;0.60;;;;;;;;;;5041423;28;20283;-76
2023/12/15 01:10:55;;;;;;;0.68;0.68;;;;;;;-142.91;100.00;56616.03;5041646;28;20651;-77
2023/12/15 01:13:21;;;;;;;2.88;0.60;;;;;;;-142.91;100.00;56616.03;5040522;28;20222;-77
2023/12/15 01:15:48;;;;;;;0.70;0.70;;;;;;;-142.91;100.00;56616.03;5041065;28;20282;-76
2023/12/15 01:18:14;;;;;;;0.60;0.60;;;;;;;;;;5037729;28;20294;-76
2023/12/15 01:20:43;;;;;;;0.40;0.40;;;;;;;-142.91;100.00;56616.03;5036496;28;20258;-76
2023/12/15 01:23:09;;;;;;;0.57;0.57;;;;;;;;;;5039301;28;20296;-76
2023/12/15 01:25:37;;;;;;;0.80;0.80;;;;;;;;;;5034832;28;20231;-76
2023/12/15 01:28:04;;;;;;;0.90;0.90;;;;;;;;;;5036719;28;20748;-76
2023/12/15 01:30:30;;;;;;;0.57;0.57;;;;;;;;;;5034752;28;20678;-76
2023/12/15 01:32:56;;;;;;;0.88;0.88;;;;;;;;;;5039614;28;20309;-76
2023/12/15 01:35:23;;;;;;;0.70;0.70;;;;;;;-142.91;100.00;56616.03;5037731;28;20286;-77
2023/12/15 01:37:50;;;;;;;1.45;0.73;;;;;;;-142.91;100.00;56616.03;5040024;28;20684;-78
2023/12/15 01:40:16;;;;;;;0.73;0.73;;;;;;;;;;5039449;28;20289;-77
2023/12/15 01:42:44;;;;;;;1.00;1.00;;;;;;;;;;5044008;28;20309;-77
2023/12/15 01:45:10;;;;;;;0.60;0.60;;;;;;;;;;5042245;28;20293;-78
2023/12/15 01:47:37;;;;;;;0.70;0.70;;;;;;;-142.91;100.00;56616.03;5041020;28;20285;-77
2023/12/15 01:50:04;;;;;;;0.68;0.68;;;;;;;;;;5041186;28;20225;-77
2023/12/15 01:52:30;;;;;;;0.82;0.82;;;;;;;;;;5037815;28;20238;-76
2023/12/15 01:54:56;;;;;;;0.82;0.82;;;;;;;;;;5041042;28;20294;-75
2023/12/15 01:57:23;;;;;;;1.02;1.02;;;;;;;;;;5039900;28;20287;-75
2023/12/15 01:59:50;;;;;;;1.20;1.00;;;;;;;;;;5043893;28;20290;-75
2023/12/15 02:02:16;;;;;;;0.88;0.88;;;;;;;;;;5038884;28;20301;-75
2023/12/15 02:04:43;;;;;;;0.63;0.63;;;;;;;;;;5038151;28;20317;-75
2023/12/15 02:07:09;;;;;;;0.75;0.75;;;;;;;;;;5040433;28;20303;-76
2023/12/15 02:09:36;;;;;;;0.80;0.80;;;;;;;;;;5035908;28;20309;-75
2023/12/15 02:12:02;;;;;;;0.60;0.60;;;;;;;;;;5040557;28;20282;-77
2023/12/15 02:14:30;;;;;;;0.90;0.73;;;;;;;;;;5038907;28;20266;-77
2023/12/15 02:16:57;;;;;;;0.60;0.60;;;;;;;;;;5032891;28;20419;-78
2023/12/15 02:19:24;;;;;;;3.15;0.88;;;;;;;;;;5038465;28;20291;-75
2023/12/15 02:21:51;;;;;;;0.70;0.70;;;;;;;-142.91;100.00;56616.03;5038994;28;20213;-76
2023/12/15 02:24:19;;;;;;;0.80;0.80;;;;;;;;;;5039565;28;20283;-75
2023/12/15 02:26:45;;;;;;;3.60;0.93;;;;;;;;;;5036138;28;20677;-76
2023/12/15 02:29:11;;;;;;;0.90;0.90;;;;;;;;;;5038198;28;20311;-77
2023/12/15 02:31:38;;;;;;;0.90;0.90;;;;;;;;;;5035867;28;20327;-77
2023/12/15 02:34:04;;;;;;;0.82;0.82;;;;;;;-142.91;100.00;56616.03;5041107;28;20199;-76
2023/12/15 02:36:31;;;;;;;2.10;1.02;;;;;;;-142.91;100.00;56616.03;5039039;28;20289;-77
2023/12/15 02:38:58;;;;;;;0.80;0.80;;;;;;;;;;5037373;28;20326;-76
2023/12/15 02:41:26;;;;;;;0.70;0.70;;;;;;;;;;5037167;28;20219;-78
2023/12/15 02:43:52;;;;;;;0.90;0.90;;;;;;;;;;5039565;28;20446;-78
2023/12/15 02:46:19;;;;;;;0.90;0.90;;;;;;;-142.91;100.00;56616.03;5035620;28;20593;-75
2023/12/15 02:48:45;;;;;;;1.13;1.10;;;;;;;;;;5040406;28;20297;-77
2023/12/15 02:51:12;;;;;;;1.30;1.30;;;;;;;;;;5041784;28;20243;-76
2023/12/15 02:53:40;;;;;;;1.70;1.60;;;;;;;;;;5043585;28;20684;-77
2023/12/15 02:56:07;;;;;;;1.42;1.33;;;;;;;;;;5041271;28;20673;-75
2023/12/15 02:58:35;;;;;;;1.42;1.33;;;;;;;-142.91;100.00;56616.03;5040457;28;20233;-77
2023/12/15 03:01:02;;;;;;;1.67;1.58;;;;;;;;;;5043659;28;20537;-78
2023/12/15 03:03:29;;;;;;;1.70;1.60;;;;;;;-142.91;100.00;56616.03;5039274;28;20662;-77
2023/12/15 03:05:55;;;;;;;1.73;1.63;;;;;;;-142.91;100.00;56616.03;5044924;28;20341;-77
2023/12/15 03:08:24;;;;;;;2.10;2.00;;;;;;;;;;5037943;28;20234;-76
2023/12/15 03:10:51;;;;;;;2.20;2.00;;;;;;;-142.91;100.00;56616.03;5041966;28;20247;-77
2023/12/15 03:13:18;;;;;;;2.60;2.50;;;;;;;;;;5035372;28;20199;-76
2023/12/15 03:15:46;;;;;;;2.67;2.47;;;;;;;-142.91;100.00;56616.03;5041154;28;20218;-76
2023/12/15 03:18:12;;;;;;;2.55;2.35;;;;;;;;;;5042783;28;20287;-76
2023/12/15 03:20:39;;;;;;;2.78;2.58;;;;;;;-142.91;100.00;56616.03;5040484;28;20199;-79
2023/12/15 03:23:05;;;;;;;3.15;2.90;;;;;;;;;;5037243;28;20681;-77
2023/12/15 03:25:32;;;;;;;3.38;3.08;;;;;;;-142.91;100.00;56616.03;5035840;28;20223;-76
2023/12/15 03:28:00;;;;;;;3.25;2.95;;;;;;;;;;5039422;28;20290;-75
2023/12/15 03:30:26;;;;;;;3.75;3.55;;;;;;;-142.91;100.00;56616.03;5038386;28;20316;-76
2023/12/15 03:32:54;;;;;;;4.32;4.05;;;;;;;-142.91;100.00;56616.03;5030968;28;20219;-77
2023/12/15 03:35:21;;;;;;;3.42;3.17;;;;;;;-142.91;100.00;56616.03;5038302;28;20263;-76
2023/12/15 03:37:48;;;;;;;3.65;3.35;;;;;;;-142.91;100.00;56616.03;5043951;28;20307;-76
2023/12/15 03:40:14;;;;;;;4.38;4.07;;;;;;;-142.91;100.00;56616.03;5055379;28;20748;-74
2023/12/15 03:42:41;;;;;;;4.40;4.00;;;;;;;-142.91;100.00;56616.03;5057296;28;20202;-74
2023/12/15 03:45:09;;;;;;;4.78;4.38;;;;;;;-142.91;100.00;56616.03;5057080;28;20839;-74
2023/12/15 03:47:36;;;;;;;5.15;4.75;;;;;;;-142.91;100.00;56616.03;5054668;28;20207;-75
2023/12/15 03:50:05;;;;;;;5.28;4.78;;;;;;;-142.91;100.00;56616.03;5056190;28;20306;-75
2023/12/15 03:52:31;;;;;;;4.45;4.15;;;;;;;-142.91;100.00;56616.03;5056870;28;20198;-75
2023/12/15 03:54:58;;;;;;;6.00;5.38;;;;;;;-142.91;100.00;56616.03;5064684;28;20651;-74
2023/12/15 03:57:25;;;;;;;5.78;5.38;;;;;;;-142.91;100.00;56616.03;5066067;28;20660;-74
2023/12/15 03:59:52;;;;;;;6.65;5.95;;;;;;;-142.91;100.00;56616.03;5061938;28;20278;-74
2023/12/15 04:02:20;;;;;;;6.68;6.18;;;;;;;-142.91;100.00;56616.03;5069307;28;20266;-74
2023/12/15 04:04:47;;;;;;;5.90;5.50;;;;;;;-142.91;100.00;56616.03;5065483;28;20238;-74
2023/12/15 04:07:15;;;;;;;5.88;5.35;;;;;;;-142.91;100.00;56616.03;5059473;28;20904;-74
2023/12/15 04:09:41;;;;;;;7.20;6.60;;;;;;;-142.91;100.00;56616.03;5065372;28;20249;-75
2023/12/15 04:12:08;;;;;;;6.60;6.07;;;;;;;-142.91;100.00;56616.03;5052970;28;20254;-73
2023/12/15 04:14:35;;;;;;;7.50;6.90;;;;;;;23.25;100.00;56616.03;5061898;28;20281;-74
2023/12/15 04:17:02;;;;;;;7.32;6.63;;;;;;;-142.91;100.00;56616.03;5060366;28;20203;-74
2023/12/15 04:19:28;;;;;;;7.13;6.57;;;;;;;-142.91;100.00;56616.03;5066868;28;20229;-74
2023/12/15 04:21:55;;;;;;;7.43;6.82;;;;;;;-142.91;100.00;56616.03;5046643;28;20287;-74
2023/12/15 04:24:25;;;;;;;7.22;6.63;;;;;;;-142.91;100.00;56616.03;5059803;28;20234;-74
2023/12/15 04:26:52;;;;;;;7.78;7.07;;;;;;;-142.91;100.00;56616.03;5052196;28;20210;-74
2023/12/15 04:29:18;;;;;;;8.18;7.43;;;;;;;;;;5064526;28;20221;-74
2023/12/15 04:31:45;;;;;;;8.05;7.25;;;;;;;-142.91;100.00;56616.03;5052738;28;20365;-74
2023/12/15 04:34:11;;;;;;;9.88;7.50;;;;;;;-142.91;100.00;56616.03;5056831;28;20227;-74
2023/12/15 04:36:39;;;;;;;8.90;7.93;;;;;;;-142.91;100.00;56616.03;5051913;28;20593;-74
2023/12/15 04:39:06;;;;;;;8.43;7.63;;;;;;;-142.91;100.00;56616.03;5051890;28;20205;-73
2023/12/15 04:41:34;;;;;;;8.02;7.22;;;;;;;-142.91;100.00;56616.03;5051788;28;20195;-73
2023/12/15 04:44:01;;;;;;;8.43;7.60;;;;;;;-142.91;100.00;56616.03;5051017;28;20689;-75
2023/12/15 04:46:29;;;;;;;8.00;7.32;;;;;;;-142.91;100.00;56616.03;5054145;28;20203;-75
2023/12/15 04:48:57;;;;;;;9.60;7.00;;;;;;;-142.91;100.00;56616.03;5060608;28;20245;-74
2023/12/15 04:51:24;;;;;;;16.25;11.13;;;;;;;;;;5050129;28;20215;-74
2023/12/15 04:53:51;;;;;;;18.73;12.73;;;;;;;-142.91;100.00;56616.03;5053396;28;20715;-73
2023/12/15 04:56:17;;;;;;;15.10;10.73;;;;;;;-142.91;100.00;56616.03;5055887;28;20230;-75
2023/12/15 04:58:45;;;;;;;9.50;8.50;;;;;;;-142.91;100.00;56616.03;5059303;28;20237;-74
2023/12/15 05:01:13;;;;;;;8.40;7.50;;;;;;;-142.91;100.00;56616.03;5052141;28;20645;-75
2023/12/15 05:03:39;;;;;;;10.10;8.82;;;;;;;-142.91;100.00;56616.03;5059103;28;20226;-76
2023/12/15 05:06:07;;;;;;;8.20;7.43;;;;;;;-142.91;100.00;56616.03;5058415;28;20237;-73
2023/12/15 05:08:33;;;;;;;7.47;6.50;;;;;;;-142.91;100.00;56616.03;5052249;28;20233;-73
2023/12/15 05:11:00;;;;;;;6.78;6.18;;;;;;;-142.91;100.00;56616.03;5058047;28;20644;-74
2023/12/15 05:13:27;;;;;;;7.38;6.68;;;;;;;-142.91;100.00;56616.03;5060884;28;20234;-74
2023/12/15 05:15:54;;;;;;;6.85;6.28;;;;;;;;;;5057550;28;20230;-74
2023/12/15 05:18:21;;;;;;;8.52;6.97;;;;;;;-142.91;100.00;56616.03;5059566;28;20284;-75
2023/12/15 05:20:48;;;;;;;6.35;5.95;;;;;;;-142.91;100.00;56616.03;5048888;28;20297;-74
2023/12/15 05:23:15;;;;;;;6.47;5.88;;;;;;;;;;5068075;28;20350;-74
2023/12/15 05:25:41;;;;;;;6.40;5.82;;;;;;;-142.91;100.00;56616.03;5064114;28;20206;-73
2023/12/15 05:28:08;;;;;;;6.82;6.30;;;;;;;;;;5038825;28;20257;-75
2023/12/15 05:30:34;;;;;;;7.10;6.50;;;;;;;-142.91;100.00;56616.03;5043909;28;20831;-74
2023/12/15 05:33:02;;;;;;;6.93;6.32;;;;;;;-142.91;100.00;56616.03;5049437;28;20609;-74
2023/12/15 05:35:29;;;;;;;10.48;6.63;;;;;;;-142.91;100.00;56616.03;5047781;28;20715;-75
2023/12/15 05:37:56;;;;;;;7.03;6.43;;;;;;;-142.91;100.00;56616.03;5048795;28;20294;-76
2023/12/15 05:40:22;;;;;;;6.72;6.00;;;;;;;-142.91;100.00;56616.03;5050598;28;20279;-75
2023/12/15 05:42:49;;;;;;;8.77;7.88;;;;;;;-142.91;100.00;56616.03;5052993;28;20284;-75
2023/12/15 05:45:15;;;;;;;23.48;15.70;;;;;;;-142.91;100.00;56616.03;5060885;28;20241;-75
2023/12/15 05:47:42;;;;;;;10.77;8.40;;;;;;;-142.91;100.00;56616.03;5049690;28;20227;-75
2023/12/15 05:50:12;;;;;;;7.13;6.47;;;;;;;-142.91;100.00;56616.03;5050626;28;20275;-75
2023/12/15 05:52:39;;;;;;;6.30;5.78;;;;;;;-142.91;100.00;56616.03;5051707;28;20679;-73
2023/12/15 05:55:06;;;;;;;7.00;6.50;;;;;;;-142.91;100.00;56616.03;5052354;28;20198;-75
2023/12/15 05:57:33;;;;;;;6.82;6.30;;;;;;;-142.91;100.00;56616.03;5060220;28;20226;-76
2023/12/15 06:00:00;;;;;;;10.07;7.63;;;;;;;-142.91;100.00;56616.03;5047712;28;20278;-75
2023/12/15 06:02:26;;;;;;;9.35;7.40;;;;;;;;;;5044910;28;20231;-74
2023/12/15 06:04:53;;;;;;;12.57;9.20;;;;;;;-142.91;100.00;56616.03;5055234;28;20715;-76
2023/12/15 06:07:21;;;;;;;7.97;7.28;;;;;;;-142.91;100.00;56616.03;5054733;28;20231;-75
2023/12/15 06:09:48;;;;;;;6.57;6.00;;;;;;;-142.91;100.00;56616.03;5058275;28;20720;-75
2023/12/15 06:12:16;;;;;;;8.43;6.88;;;;;;;-142.91;100.00;56616.03;5054690;28;20258;-76
2023/12/15 06:14:42;;;;;;;6.93;6.30;;;;;;;-142.91;100.00;56616.03;5049017;28;20233;-76
2023/12/15 06:17:10;;;;;;;6.82;6.05;;;;;;;-142.91;100.00;56616.03;5050404;28;20293;-77
2023/12/15 06:19:39;;;;;;;6.70;5.90;;;;;;;-142.91;100.00;56616.03;5057939;28;20202;-76
2023/12/15 06:22:06;;;;;;;6.38;5.90;;;;;;;-142.91;100.00;56616.03;5059126;28;20593;-76
2023/12/15 06:24:34;;;;;;;7.05;6.10;;;;;;;-142.91;100.00;56616.03;5068492;28;20232;-76
2023/12/15 06:27:03;;;;;;;7.93;7.20;;;;;;;-142.91;100.00;56616.03;5055414;28;20256;-73
2023/12/15 06:29:30;;;;;;;7.15;6.50;;;;;;;-142.91;100.00;56616.03;5068803;28;20275;-75
2023/12/15 06:31:56;;;;;;;8.45;7.65;;;;;;;-142.91;100.00;56616.03;5064770;28;20313;-75
2023/12/15 06:34:23;;;;;;;8.35;7.63;;;;;;;-142.91;100.00;56616.03;5054307;28;20237;-75
2023/12/15 06:36:49;;;;;;;9.10;7.85;;;;;;;-142.91;100.00;56616.03;5054242;28;20199;-75
2023/12/15 06:39:16;;;;;;;9.32;8.32;;;;;;;-142.91;100.00;56616.03;5057390;28;20285;-75
2023/12/15 06:41:44;;;;;;;9.18;8.27;;;;;;;-142.91;100.00;56616.03;5052996;28;20274;-75
2023/12/15 06:44:11;;;;;;;9.55;8.55;;;;;;;-142.91;100.00;56616.03;5063178;28;20318;-76
2023/12/15 06:46:39;;;;;;;12.23;9.32;;;;;;;-142.91;100.00;56616.03;5044010;28;20647;-76
2023/12/15 06:49:05;;;;;;;9.50;8.60;;;;;;;-142.91;100.00;56616.03;5043080;28;20203;-75
2023/12/15 06:51:32;;;;;;;9.68;8.18;;;;;;;-142.91;100.00;56616.03;5053459;28;20294;-74
2023/12/15 06:53:59;;;;;;;10.82;8.40;;;;;;;-142.91;100.00;56616.03;5052911;28;20230;-75
2023/12/15 06:56:25;;;;;;;12.00;9.27;;;;;;;-142.91;100.00;56616.03;5047812;28;20253;-73
2023/12/15 06:58:53;;;;;;;9.88;8.70;;;;;;;-142.91;100.00;56616.03;5065258;28;20297;-74
2023/12/15 07:01:21;;;;;;;9.55;8.10;;;;;;;-142.91;100.00;56616.03;5060660;28;20229;-73
2023/12/15 07:03:48;;;;;;;11.35;8.90;;;;;;;-142.91;100.00;56616.03;5064596;28;20206;-74
2023/12/15 07:06:17;;;;;;;10.23;9.05;;;;;;;;;;5061548;28;20260;-76
2023/12/15 07:08:43;;;;;;;9.95;8.90;;;;;;;-142.91;100.00;56616.03;5064547;28;20195;-76
2023/12/15 07:11:10;;;;;;;12.90;9.00;;;;;;;-142.91;100.00;56616.03;5068216;28;20243;-75
2023/12/15 07:13:37;;;;;;;10.02;8.98;;;;;;;-142.91;100.00;56616.03;5063976;28;20205;-75
2023/12/15 07:16:06;;;;;;;11.07;9.40;;;;;;;-142.91;100.00;56616.03;5048476;28;20290;-74
2023/12/15 07:18:34;;;;;;;10.48;9.35;;;;;;;-142.91;100.00;56616.03;5050055;28;20230;-75
2023/12/15 07:21:01;;;;;;;11.18;9.52;;;;;;;-142.91;100.00;56616.03;5050752;28;20203;-74
2023/12/15 07:23:27;;;;;;;10.57;8.68;;;;;;;-142.91;100.00;56616.03;5038861;28;20220;-75
2023/12/15 07:25:54;;;;;;;9.77;8.82;;;;;;;-142.91;100.00;56616.03;5043305;28;20226;-75
2023/12/15 07:28:20;;;;;;;9.88;8.90;;;;;;;-142.91;100.00;56616.03;5044083;28;20282;-75
2023/12/15 07:30:47;;;;;;;10.18;8.65;;;;;;;-142.91;100.00;56616.03;5049046;28;20303;-76
2023/12/15 07:33:16;;;;;;;12.32;9.73;;;;;;;-142.91;100.00;56616.03;5047198;28;20580;-76
2023/12/15 07:35:42;;;;;;;10.55;9.45;;;;;;;;;;5049485;28;20226;-76
2023/12/15 07:38:09;;;;;;;10.82;9.05;;;;;;;;;;5050359;28;20214;-74
2023/12/15 07:40:35;;;;;;;11.73;9.80;;;;;;;;;;5044353;28;20227;-77
2023/12/15 07:45:43;;;;;;;10.50;9.50;;;;;;;-142.91;100.00;56616.03;5050917;28;20672;-76
2023/12/15 07:48:10;;;;;;;12.13;9.75;;;;;;;-142.91;100.00;56616.03;5056408;28;20209;-77
2023/12/15 07:50:39;;;;;;;12.75;9.15;;;;;;;-142.91;100.00;56616.03;5061248;28;20619;-74
2023/12/15 07:53:05;;;;;;;9.88;8.90;;;;;;;-142.91;100.00;56616.03;5056190;28;20199;-76
2023/12/15 07:55:32;;;;;;;13.35;10.35;;;;;;;-142.91;100.00;56616.03;5052442;28;20199;-77
2023/12/15 07:57:58;;;;;;;10.98;9.77;;;;;;;;;;5052454;28;20241;-76
2023/12/15 08:00:25;;;;;;;11.45;10.20;;;;;;;-142.91;100.00;56616.03;5053216;28;20221;-76
2023/12/15 08:02:52;;;;;;;10.45;9.20;;;;;;;-142.91;100.00;56616.03;5053387;28;20242;-76
2023/12/15 08:05:19;;;;;;;11.43;10.30;;;;;;;-142.91;100.00;56616.03;5053089;28;20682;-77
2023/12/15 08:07:47;;;;;;;13.38;10.52;;;;;;;-142.91;100.00;56616.03;5053649;28;20203;-78
2023/12/15 08:10:13;;;;;;;13.35;10.50;;;;;;;-142.91;100.00;56616.03;5052631;28;20195;-77
2023/12/15 08:12:40;;;;;;;12.93;10.00;;;;;;;;;;5053144;28;20314;-76
2023/12/15 08:15:08;;;;;;;14.35;10.38;;;;;;;-142.91;100.00;56616.03;5052813;28;20203;-75
2023/12/15 08:17:35;;;;;;;13.98;10.23;;;;;;;-142.91;100.00;56616.03;5053249;28;20242;-77
2023/12/15 08:20:02;;;;;;;12.95;11.25;;;;;;;;;;5053522;28;20268;-78
2023/12/15 08:22:28;;;;;;;12.90;10.60;;;;;;;-142.91;100.00;56616.03;5053282;28;20198;-77
2023/12/15 08:24:56;;;;;;;11.23;10.15;;;;;;;;;;5048147;28;20223;-75
2023/12/15 08:27:24;;;;;;;12.88;9.85;;;;;;;-142.91;100.00;56616.03;5052701;28;20273;-77
2023/12/15 08:29:51;;;;;;;14.40;10.98;;;;;;;-142.91;100.00;56616.03;5052455;28;20673;-78
2023/12/15 08:32:18;;;;;;;15.60;9.90;;;;;;;-142.91;100.00;56616.03;5052051;28;20704;-77
2023/12/15 08:34:44;;;;;;;11.70;10.50;;;;;;;-142.91;100.00;56616.03;5052308;28;20230;-76
2023/12/15 08:37:11;;;;;;;19.02;11.57;;;;;;;-142.91;100.00;56616.03;5051727;28;20282;-76
2023/12/15 08:39:37;;;;;;;17.48;13.40;;;;;;;;;;5051847;28;20230;-75
2023/12/15 08:42:05;;;;;;;21.95;13.75;;;;;;;-142.91;100.00;56616.03;5055514;28;20284;-73
2023/12/15 08:44:32;;;;;;;19.70;12.32;;;;;;;-142.91;100.00;56616.03;5065855;28;20206;-75
2023/12/15 08:46:59;;;;;;;19.83;12.63;;;;;;;-142.91;100.00;56616.03;5069510;28;20286;-77
2023/12/15 08:49:26;;;;;;;11.52;9.32;;;;;;;-142.91;100.00;56616.03;5069467;28;20242;-78
2023/12/15 08:51:53;;;;;;;12.77;10.55;;;;;;;-142.91;100.00;56616.03;5068807;28;20218;-77
2023/12/15 08:54:20;;;;;;;21.92;11.68;;;;;;;-142.91;100.00;56616.03;5070391;28;20203;-76
2023/12/15 08:56:46;;;;;;;11.93;9.02;;;;;;;-142.91;100.00;56616.03;5067794;28;20238;-77
2023/12/15 08:59:14;;;;;;;12.90;9.32;;;;;;;-142.91;100.00;56616.03;5070832;28;20331;-77
2023/12/15 09:01:41;;;;;;;12.80;10.52;;;;;;;-142.91;100.00;56616.03;5068009;28;20243;-75
2023/12/15 09:04:08;;;;;;;14.32;9.98;;;;;;;-142.91;100.00;56616.03;5071093;28;20257;-75
2023/12/15 09:06:35;;;;;;;17.38;11.48;;;;;;;-142.91;100.00;56616.03;5068527;28;20190;-76
2023/12/15 09:09:02;;;;;;;12.27;10.43;;;;;;;-142.91;100.00;56616.03;5059619;28;20662;-78
2023/12/15 09:11:31;;;;;;;11.60;10.23;;;;;;;-142.91;100.00;56616.03;5066660;28;20301;-78
2023/12/15 09:14:00;;;;;;;14.60;9.98;;;;;;;-142.91;100.00;56616.03;5069175;28;20711;-75
2023/12/15 09:16:28;;;;;;;12.57;10.25;;;;;;;-142.91;100.00;56616.03;5061319;28;20202;-77
2023/12/15 09:18:54;;;;;;;13.95;10.52;;;;;;;-142.91;100.00;56616.03;5062322;28;20746;-77
2023/12/15 09:21:21;;;;;;;12.02;10.63;;;;;;;-142.91;100.00;56616.03;5063212;28;20253;-77
2023/12/15 09:23:48;;;;;;;11.75;9.93;;;;;;;-142.91;100.00;56616.03;5051202;28;20195;-77
2023/12/15 09:26:15;;;;;;;15.80;10.70;;;;;;;-142.91;100.00;56616.03;5063200;28;20233;-77
2023/12/15 09:28:41;;;;;;;15.82;10.55;;;;;;;-142.91;100.00;56616.03;5063248;28;20241;-77
2023/12/15 09:31:08;;;;;;;10.23;9.23;;;;;;;-142.91;100.00;56616.03;5068498;28;20230;-77
2023/12/15 09:33:36;;;;;;;10.45;9.10;;;;;;;-142.91;100.00;56616.03;5067429;28;20226;-76
2023/12/15 09:36:03;;;;;;;12.13;9.70;;;;;;;;;;5038070;28;20203;-77
2023/12/15 09:38:30;;;;;;;13.80;10.45;;;;;;;-142.91;100.00;56616.03;5049282;28;20294;-77
2023/12/15 09:40:57;;;;;;;10.98;9.02;;;;;;;-142.91;100.00;56616.03;5049155;28;20764;-76
2023/12/15 09:43:23;;;;;;;10.75;9.30;;;;;;;-142.91;100.00;56616.03;5049027;28;20250;-76
2023/12/15 09:45:50;;;;;;;12.20;10.07;;;;;;;-142.91;100.00;56616.03;5050166;28;20231;-76
2023/12/15 09:48:17;;;;;;;16.13;10.40;;;;;;;-142.91;100.00;56616.03;5049727;28;20242;-77
2023/12/15 09:50:51;;;;;;;12.27;9.93;;;;;;;-142.91;100.00;56616.03;5049435;28;20234;-76
2023/12/15 09:53:19;;;;;;;11.85;9.88;;;;;;;-142.91;100.00;56616.03;5048853;28;20203;-79
2023/12/15 09:55:46;;;;;;;15.43;10.40;;;;;;;-142.91;100.00;56616.03;5050583;28;20241;-77
2023/12/15 09:58:13;;;;;;;12.90;10.13;;;;;;;-142.91;100.00;56616.03;5050704;28;20226;-79
2023/12/15 10:00:40;;;;;;;14.77;10.48;;;;;;;-142.91;100.00;56616.03;5051224;28;20238;-78
2023/12/15 10:03:07;;;;;;;12.43;9.82;;;;;;;-142.91;100.00;56616.03;5050647;28;20191;-76
2023/12/15 10:05:34;;;;;;;12.30;10.48;;;;;;;-142.91;100.00;56616.03;5051454;28;20238;-78
2023/12/15 10:08:04;;;;;;;10.65;9.65;;;;;;;-142.91;100.00;56616.03;5050521;28;20645;-77
2023/12/15 10:10:31;;;;;;;14.10;11.52;;;;;;;-142.91;100.00;56616.03;5051513;28;20252;-77
2023/12/15 10:12:57;;;;;;;13.88;10.07;;;;;;;-142.91;100.00;56616.03;5049962;28;20491;-78
2023/12/15 10:15:24;;;;;;;13.95;10.13;;;;;;;-142.91;100.00;56616.03;5051036;28;20206;-77
2023/12/15 10:17:52;;;;;;;13.13;10.52;;;;;;;-142.91;100.00;56616.03;5050286;28;20696;-75
2023/12/15 10:20:19;;;;;;;16.52;12.07;;;;;;;-142.91;100.00;56616.03;5050874;28;20238;-75
2023/12/15 10:22:46;;;;;;;18.40;10.88;;;;;;;-142.91;100.00;56616.03;5050974;28;20202;-76
2023/12/15 10:25:20;;;;;;;20.00;12.93;;;;;;;-142.91;100.00;56616.03;5051255;28;20223;-76
2023/12/15 10:27:47;;;;;;;12.45;10.93;;;;;;;-142.91;100.00;56616.03;5048033;28;20230;-76
2023/12/15 10:30:16;;;;;;;16.52;11.90;;;;;;;-142.91;100.00;56616.03;5044892;28;20231;-77
2023/12/15 10:32:43;;;;;;;19.38;12.18;;;;;;;-142.91;100.00;56616.03;5049129;28;20222;-77
2023/12/15 10:35:10;;;;;;;23.83;13.25;;;;;;;;;;5049931;28;20226;-76
2023/12/15 10:37:37;;;;;;;30.25;16.00;;;;;;;-142.91;100.00;56616.03;5049992;28;20677;-78
2023/12/15 10:40:06;;;;;;;32.67;14.35;;;;;;;-142.91;100.00;56616.03;5050958;28;20195;-76
2023/12/15 10:42:35;;;;;;;28.92;15.63;;;;;;;-142.91;100.00;56616.03;5050990;28;20230;-77
2023/12/15 10:45:04;;;;;;;33.13;16.15;;;;;;;-142.91;100.00;56616.03;5050306;28;20282;-78
2023/12/15 10:47:31;;;;;;;26.17;15.40;;;;;;;-142.91;100.00;56616.03;5050670;28;20692;-77
2023/12/15 10:49:58;;;;;;;27.15;14.55;;;;;;;-142.91;100.00;56616.03;5052047;28;20685;-77
2023/12/15 10:52:26;;;;;;;19.33;12.23;;;;;;;-142.91;100.00;56616.03;5062992;28;20243;-76
2023/12/15 10:54:53;;;;;;;17.17;12.40;;;;;;;-142.91;100.00;56616.03;5064551;28;20194;-74
2023/12/15 10:57:20;;;;;;;23.65;13.90;;;;;;;-142.91;100.00;56616.03;5070819;28;20222;-77
2023/12/15 10:59:50;;;;;;;18.63;12.82;;;;;;;-142.91;100.00;56616.03;5055409;28;20230;-75
2023/12/15 11:02:19;;;;;;;16.52;12.60;;;;;;;-142.91;100.00;56616.03;5053460;28;20290;-76
2023/12/15 11:04:48;;;;;;;19.73;12.02;;;;;;;;;;5054306;28;20270;-78
2023/12/15 11:07:14;;;;;;;17.95;11.48;;;;;;;-142.91;100.00;56616.03;5060401;28;20272;-76
2023/12/15 11:09:42;;;;;;;13.95;11.68;;;;;;;-142.91;100.00;56616.03;5055359;28;20273;-73
2023/12/15 11:12:23;;;;;;;16.92;12.73;;;;;;;23.25;100.00;56616.03;5054942;28;20251;-77
2023/12/15 11:15:00;;;;;;;14.13;10.90;;;;;;;-142.91;100.00;56616.03;5055447;28;20209;-76
2023/12/15 11:17:28;;;;;;;13.50;11.05;;;;;;;-142.91;100.00;56616.03;5054092;28;20290;-75
2023/12/15 11:19:59;;;;;;;18.27;12.50;;;;;;;-142.91;100.00;56616.03;5053643;28;20241;-76
2023/12/15 11:22:28;;;;;;;20.25;13.10;;;;;;;23.25;100.00;56616.03;5054502;28;20741;-77
2023/12/15 11:24:56;;;;;;;14.60;11.27;;;;;;;-142.91;100.00;56616.03;5054019;28;20207;-75
2023/12/15 11:27:24;;;;;;;16.35;12.55;;;;;;;-142.91;100.00;56616.03;5053967;28;20195;-78
2023/12/15 11:29:51;;;;;;;19.63;13.05;;;;;;;-142.91;100.00;56616.03;5053957;28;20257;-76
2023/12/15 11:32:33;;;;;;;17.80;12.43;;;;;;;;;;5053545;28;20254;-77
2023/12/15 11:35:00;;;;;;;15.65;12.98;;;;;;;-142.91;100.00;56616.03;5050239;28;20202;-78
2023/12/15 11:37:27;;;;;;;19.23;12.85;;;;;;;;;;5050487;28;20244;-77
2023/12/15 11:39:55;;;;;;;16.83;12.65;;;;;;;-142.91;100.00;56616.03;5051718;28;20233;-77
2023/12/15 11:42:22;;;;;;;19.48;12.15;;;;;;;;;;5052093;28;20348;-76
2023/12/15 11:44:48;;;;;;;19.67;12.05;;;;;;;-142.91;100.00;56616.03;5052295;28;20235;-78
2023/12/15 11:47:15;;;;;;;16.27;11.05;;;;;;;-142.91;100.00;56616.03;5051782;28;20268;-77
2023/12/15 11:49:43;;;;;;;13.70;9.55;;;;;;;-142.91;100.00;56616.03;5051740;28;20282;-75